x

St Georges - 8nm Nw Of Crescent City, Ca (46027) Weather Station

8:50am - Thu 31st Jul 2014 All times are PDT. -7 hours from GMT.

  • Wind
    4mph
  • Sea Temp 52°f
  • Air Temp 48°f
  • Sea Pressure 1017.2mb
  • St Georges - 8nm Nw Of Crescent City, Ca
  • St Georges - 8nm Nw Of Crescent City, Ca

More Historic Weather Station data

Upgrade to MSW Pro to gain access to the past 30 days of data for over 8000 Wavebouys and Weather Stations around the globe.

Join Pro

Comparision Forecast

View Surf forecast
   
Thu 07/31 8:50am  -   -   -  4
mph
1017.2mb 52f 48f
7:50am 6ft 7s 6s 4 7 mph 1016.9mb 52f 48f
6:50am 5ft 7s 6s 2 4 mph 1016.6mb 53f 49f
5:50am 5ft 7s 6s 2 7 mph 1016.3mb 53f 49f
4:50am 5ft 7s 6s 7
mph
1016.3mb 53f 49f
3:50am 5ft 7s 6s 7 9 mph 1016.7mb 53f 49f
2:50am 5ft 6s 6s 4 7 mph 1016.6mb 52f 49f
1:50am 4.5ft 7s 6s 7 9 mph 1016.9mb 52f 49f
12:50am 4.5ft 7s 5s 7 9 mph 1017.4mb 52f 49f
Wed 07/30 11:50pm 5ft 7s 6s 4 7 mph 1017.6mb 53f 49f
10:50pm 6ft 7s 6s 4 7 mph 1017.5mb 53f 49f
9:50pm 4.5ft 6s 6s 4 7 mph 1017.4mb 53f 49f
8:50pm 5ft 7s 6s 7
mph
1017.3mb 54f 50f
7:50pm 5ft 7s 6s  -  2 mph 1017.3mb 54f 51f
6:50pm 5.5ft 7s 6s 7 9 mph 1017mb 55f 50f
5:50pm 5ft 8s 6s 7 9 mph 1017mb 55f 50f
4:50pm 5ft 7s 6s 2 4 mph 1017.2mb 55f 50f
3:50pm 5ft 7s 6s 2
mph
1017.9mb 54f 50f
2:50pm  -   -   -  4
mph
1017.9mb 54f 50f
1:50pm 4ft 8s 6s 2 4 mph 1018.2mb 52f 49f
12:50pm 4.5ft 7s 6s 4
mph
1018.4mb 53f 49f
11:50am 4ft 7s 5s 4 7 mph 1018.5mb 53f 49f
10:50am 4.5ft 6s 5s 7
mph
1018.7mb 53f 48f
9:50am 4ft 6s 5s 2
mph
1018.6mb 53f 49f
8:50am  -   -   -  2
mph
1018.9mb 53f 49f
7:50am 4.5ft 7s 5s 7
mph
1018.9mb 53f 49f
6:50am 4.5ft 6s 6s 2 4 mph 1018.7mb 52f 49f
5:50am 5ft 7s 6s 7 9 mph 1018.4mb 53f 49f
4:50am 4.5ft 6s 5s 7
mph
1018.3mb 53f 49f
3:50am 4.5ft 6s 5s 4 7 mph 1018.6mb 53f 50f
2:50am 4.5ft 7s 6s 7 9 mph 1018.8mb 53f 50f
1:50am 4.5ft 7s 6s 4 7 mph 1018.8mb 54f 50f
12:50am 4.5ft 7s 5s 7
mph
1019.3mb 53f 50f
Tue 07/29 11:50pm 4.5ft 6s 6s 4
mph
1019.4mb 53f 49f
10:50pm 4.5ft 6s 6s  -  2 mph 1019.6mb 54f 49f
9:50pm 5ft 7s 6s 4 7 mph 1019.3mb 54f 50f
8:50pm 5ft 7s 6s 2 4 mph 1018.7mb 54f 50f
7:50pm 4.5ft 7s 6s 7 9 mph 1018.5mb 54f 49f
6:50pm 4.5ft 7s 5s 11 13 mph 1018.5mb 54f 49f
5:50pm  -   -   -  16 18 mph 1018.7mb 54f 50f
4:50pm 4.5ft 7s 5s 7 11 mph 1019.2mb 54f 49f
3:50pm 4.5ft 6s 5s 9 11 mph 1019.2mb 55f 49f
2:50pm 4ft 7s 6s 4
mph
1019.9mb 55f 49f
1:50pm 4ft 6s 5s 4 7 mph 1020.2mb 55f 50f
12:50pm 3.5ft 7s 6s 2
mph
1020.2mb 54f 50f
11:50am 3.5ft 7s 5s 7
mph
1020.1mb 53f 49f
10:50am 3.5ft 6s 5s 4 7 mph 1020.4mb 53f 48f
9:50am  -   -   -  4 7 mph 1020.4mb 52f 48f
8:50am 3.5ft 7s 5s 4
mph
1020.4mb 52f 49f
7:50am 4ft 7s 5s 7 9 mph 1020.1mb 51f 47f
6:50am 4.5ft 6s 5s 7
mph
1020.1mb 51f 48f
5:50am 4.5ft 8s 6s 7 9 mph 1019.7mb 52f 49f
4:50am 4.5ft 7s 6s 9 11 mph 1019.3mb 52f 49f
3:50am 4.5ft 7s 6s 9 11 mph 1019.1mb 53f 49f
2:50am 4.5ft 6s 5s 7
mph
1019.5mb 54f 50f
1:50am 4.5ft 7s 5s 7 9 mph 1019.5mb 53f 50f
12:50am 4.5ft 8s 6s 9 13 mph 1019.7mb 54f 50f
Mon 07/28 11:50pm 4.5ft 7s 6s 7 9 mph 1019.6mb 53f 50f
10:50pm  -   -   -  7 9 mph 1019.4mb 51f 49f
9:50pm 4.5ft 7s 6s 7 9 mph 1018.9mb 51f 49f
8:50pm 5ft 7s 5s 4
mph
1018.3mb 50f 48f
7:50pm 5.5ft 6s 5s 4 9 mph 1018.1mb 50f 47f
6:50pm 5ft 7s 6s 11 13 mph 1017.9mb 49f 48f
5:50pm 5ft 7s 5s 11 13 mph 1018.1mb 50f 48f
4:50pm 5ft 8s 5s 11 13 mph 1018.2mb 50f 48f
3:50pm 4.5ft 7s 5s 11 16 mph 1018.5mb 49f 48f
2:50pm 4.5ft 8s 6s 9 11 mph 1018.6mb 50f 47f
1:50pm 4.5ft 8s 6s 7
mph
1018.7mb 51f 47f
12:50pm 4.5ft 8s 6s 4 7 mph 1018.7mb 51f 47f
11:50am 4.5ft 8s 6s 2 4 mph 1018.6mb 51f 48f
10:50am 4.5ft 8s 6s 4
mph
1018.6mb 53f 47f
9:50am 5ft 7s 6s 7 9 mph 1018.5mb 53f 47f
8:50am 5.5ft 8s 6s 7 9 mph 1018.4mb 54f 48f
7:50am 5.5ft 8s 6s 7
mph
1018.3mb 53f 48f
6:50am 5.5ft 7s 6s  -  2 mph 1017.7mb 50f 47f
5:50am 6ft 7s 6s 2 4 mph 1017.2mb 50f 46f
4:50am 5.5ft 7s 6s 4 7 mph 1017.1mb 50f 47f
3:50am 5ft 8s 6s 4
mph
1017mb 50f 47f
2:50am  -   -   -  7
mph
1017mb 49f 48f
1:50am  -   -   -  7 9 mph 1016.9mb 48f 47f
12:50am  -   -   -  4 7 mph 1016.9mb 49f 49f
Sun 07/27 11:50pm 6ft 8s 6s 4
mph
1016.7mb 49f 50f
10:50pm 6ft 8s 6s 4 7 mph 1016.5mb 50f 51f
9:50pm 6ft 7s 6s 4 7 mph 1016.3mb 50f 48f
8:50pm 6ft 8s 6s 9 11 mph 1015.9mb 51f 49f
7:50pm 6ft 8s 6s 9 11 mph 1015.6mb 50f 49f
6:50pm 6ft 7s 6s 11 13 mph 1015.3mb 51f 49f
5:50pm 5.5ft 7s 6s 9 11 mph 1015.8mb 50f 50f
4:50pm 5ft 7s 6s 13 16 mph 1016mb 50f 50f